sensor_id;sensor_type;location;lat;lon;timestamp;temperature;humidity
47022;DHT22;32779;52.264;6.154;2023-03-01T00:01:12;-1.90;99.90
47022;DHT22;32779;52.264;6.154;2023-03-01T00:03:38;-2.00;99.90
47022;DHT22;32779;52.264;6.154;2023-03-01T00:06:05;-2.00;99.90
47022;DHT22;32779;52.264;6.154;2023-03-01T00:08:32;-2.10;99.90
47022;DHT22;32779;52.264;6.154;2023-03-01T00:11:13;-2.10;99.90
47022;DHT22;32779;52.264;6.154;2023-03-01T00:13:40;-2.10;99.90
47022;DHT22;32779;52.264;6.154;2023-03-01T00:16:08;-2.20;99.90
47022;DHT22;32779;52.264;6.154;2023-03-01T00:18:35;-2.10;99.90
47022;DHT22;32779;52.264;6.154;2023-03-01T00:21:01;-2.10;99.90
47022;DHT22;32779;52.264;6.154;2023-03-01T00:23:27;-2.10;99.90
47022;DHT22;32779;52.264;6.154;2023-03-01T00:25:53;-2.10;99.90
47022;DHT22;32779;52.264;6.154;2023-03-01T00:28:19;-2.10;99.90
47022;DHT22;32779;52.264;6.154;2023-03-01T00:30:45;-2.10;99.90
47022;DHT22;32779;52.264;6.154;2023-03-01T00:33:11;-2.10;99.90
47022;DHT22;32779;52.264;6.154;2023-03-01T00:35:37;-2.00;99.90
47022;DHT22;32779;52.264;6.154;2023-03-01T00:38:03;-2.10;99.90
47022;DHT22;32779;52.264;6.154;2023-03-01T00:40:31;-2.10;99.90
47022;DHT22;32779;52.264;6.154;2023-03-01T00:42:57;-2.20;99.90
47022;DHT22;32779;52.264;6.154;2023-03-01T00:45:22;-2.20;99.90
47022;DHT22;32779;52.264;6.154;2023-03-01T00:47:49;-2.20;99.90
47022;DHT22;32779;52.264;6.154;2023-03-01T00:50:14;-2.20;99.90
47022;DHT22;32779;52.264;6.154;2023-03-01T00:52:40;-2.30;99.90
47022;DHT22;32779;52.264;6.154;2023-03-01T00:55:06;-2.30;99.90
47022;DHT22;32779;52.264;6.154;2023-03-01T00:57:32;-2.40;99.90
47022;DHT22;32779;52.264;6.154;2023-03-01T00:59:58;-2.40;99.90
47022;DHT22;32779;52.264;6.154;2023-03-01T01:02:24;-2.40;99.90
47022;DHT22;32779;52.264;6.154;2023-03-01T01:04:50;-2.50;99.90
47022;DHT22;32779;52.264;6.154;2023-03-01T01:07:15;-2.50;99.90
47022;DHT22;32779;52.264;6.154;2023-03-01T01:09:41;-2.50;99.90
47022;DHT22;32779;52.264;6.154;2023-03-01T01:12:07;-2.50;99.90
47022;DHT22;32779;52.264;6.154;2023-03-01T01:14:33;-2.40;99.90
47022;DHT22;32779;52.264;6.154;2023-03-01T01:16:59;-2.50;99.90
47022;DHT22;32779;52.264;6.154;2023-03-01T01:19:25;-2.50;99.90
47022;DHT22;32779;52.264;6.154;2023-03-01T01:21:51;-2.50;99.90
47022;DHT22;32779;52.264;6.154;2023-03-01T01:24:17;-2.50;99.90
47022;DHT22;32779;52.264;6.154;2023-03-01T01:26:43;-2.50;99.90
47022;DHT22;32779;52.264;6.154;2023-03-01T01:29:09;-2.50;99.90
47022;DHT22;32779;52.264;6.154;2023-03-01T01:31:35;-2.50;99.90
47022;DHT22;32779;52.264;6.154;2023-03-01T01:34:04;-2.60;99.90
47022;DHT22;32779;52.264;6.154;2023-03-01T01:36:30;-2.60;99.90
47022;DHT22;32779;52.264;6.154;2023-03-01T01:38:56;-2.60;99.90
47022;DHT22;32779;52.264;6.154;2023-03-01T01:41:23;-2.60;99.90
47022;DHT22;32779;52.264;6.154;2023-03-01T01:44:14;-2.70;99.90
47022;DHT22;32779;52.264;6.154;2023-03-01T01:49:25;-2.70;99.90
47022;DHT22;32779;52.264;6.154;2023-03-01T01:52:30;-2.70;99.90
47022;DHT22;32779;52.264;6.154;2023-03-01T01:54:52;-2.70;99.90
47022;DHT22;32779;52.264;6.154;2023-03-01T01:57:24;-2.70;99.90
47022;DHT22;32779;52.264;6.154;2023-03-01T01:59:57;-2.80;99.90
47022;DHT22;32779;52.264;6.154;2023-03-01T02:02:25;-2.80;99.90
47022;DHT22;32779;52.264;6.154;2023-03-01T02:05:00;-2.80;99.90
47022;DHT22;32779;52.264;6.154;2023-03-01T02:07:29;-2.90;99.90
47022;DHT22;32779;52.264;6.154;2023-03-01T02:09:55;-2.90;99.90
47022;DHT22;32779;52.264;6.154;2023-03-01T02:12:24;-2.90;99.90
47022;DHT22;32779;52.264;6.154;2023-03-01T02:14:50;-2.90;99.90
47022;DHT22;32779;52.264;6.154;2023-03-01T02:17:17;-3.00;99.90
47022;DHT22;32779;52.264;6.154;2023-03-01T02:22:35;-3.00;99.90
47022;DHT22;32779;52.264;6.154;2023-03-01T02:27:50;-3.00;99.90
47022;DHT22;32779;52.264;6.154;2023-03-01T02:30:22;-3.00;99.90
47022;DHT22;32779;52.264;6.154;2023-03-01T02:32:50;-3.00;99.90
47022;DHT22;32779;52.264;6.154;2023-03-01T02:35:18;-3.00;99.90
47022;DHT22;32779;52.264;6.154;2023-03-01T02:37:45;-3.00;99.90
47022;DHT22;32779;52.264;6.154;2023-03-01T02:40:16;-3.00;99.90
47022;DHT22;32779;52.264;6.154;2023-03-01T02:42:57;-3.00;99.90
47022;DHT22;32779;52.264;6.154;2023-03-01T02:45:24;-2.90;99.90
47022;DHT22;32779;52.264;6.154;2023-03-01T02:47:50;-2.90;99.90
47022;DHT22;32779;52.264;6.154;2023-03-01T02:53:13;-2.90;99.90
47022;DHT22;32779;52.264;6.154;2023-03-01T02:55:41;-3.00;99.90
47022;DHT22;32779;52.264;6.154;2023-03-01T02:58:07;-3.00;99.90
47022;DHT22;32779;52.264;6.154;2023-03-01T03:00:37;-3.00;99.90
47022;DHT22;32779;52.264;6.154;2023-03-01T03:03:11;-3.10;99.90
47022;DHT22;32779;52.264;6.154;2023-03-01T03:05:38;-3.10;99.90
47022;DHT22;32779;52.264;6.154;2023-03-01T03:08:03;-3.10;99.90
47022;DHT22;32779;52.264;6.154;2023-03-01T03:10:35;-3.20;99.90
47022;DHT22;32779;52.264;6.154;2023-03-01T03:13:14;-3.20;99.90
47022;DHT22;32779;52.264;6.154;2023-03-01T03:15:41;-3.20;99.90
47022;DHT22;32779;52.264;6.154;2023-03-01T03:18:09;-3.20;99.90
47022;DHT22;32779;52.264;6.154;2023-03-01T03:20:36;-3.20;99.90
47022;DHT22;32779;52.264;6.154;2023-03-01T03:23:01;-3.20;99.90
47022;DHT22;32779;52.264;6.154;2023-03-01T03:25:28;-3.30;99.90
47022;DHT22;32779;52.264;6.154;2023-03-01T03:27:55;-3.30;99.90
47022;DHT22;32779;52.264;6.154;2023-03-01T03:30:31;-3.30;99.90
47022;DHT22;32779;52.264;6.154;2023-03-01T03:32:58;-3.30;99.90
47022;DHT22;32779;52.264;6.154;2023-03-01T03:35:33;-3.30;99.90
47022;DHT22;32779;52.264;6.154;2023-03-01T03:38:03;-3.40;99.90
47022;DHT22;32779;52.264;6.154;2023-03-01T03:40:30;-3.40;99.90
47022;DHT22;32779;52.264;6.154;2023-03-01T03:42:56;-3.40;99.90
47022;DHT22;32779;52.264;6.154;2023-03-01T03:45:22;-3.40;99.90
47022;DHT22;32779;52.264;6.154;2023-03-01T03:47:48;-3.50;99.90
47022;DHT22;32779;52.264;6.154;2023-03-01T03:50:15;-3.50;99.90
47022;DHT22;32779;52.264;6.154;2023-03-01T03:52:41;-3.50;99.90
47022;DHT22;32779;52.264;6.154;2023-03-01T03:55:09;-3.50;99.90
47022;DHT22;32779;52.264;6.154;2023-03-01T03:57:36;-3.60;99.90
47022;DHT22;32779;52.264;6.154;2023-03-01T04:00:02;-3.60;99.90
47022;DHT22;32779;52.264;6.154;2023-03-01T04:02:30;-3.60;99.90
47022;DHT22;32779;52.264;6.154;2023-03-01T04:04:56;-3.60;99.90
47022;DHT22;32779;52.264;6.154;2023-03-01T04:07:21;-3.60;99.90
47022;DHT22;32779;52.264;6.154;2023-03-01T04:09:47;-3.60;99.90
47022;DHT22;32779;52.264;6.154;2023-03-01T04:12:12;-3.60;99.90
47022;DHT22;32779;52.264;6.154;2023-03-01T04:14:38;-3.60;99.90
47022;DHT22;32779;52.264;6.154;2023-03-01T04:17:04;-3.60;99.90
47022;DHT22;32779;52.264;6.154;2023-03-01T04:19:31;-3.60;99.90
47022;DHT22;32779;52.264;6.154;2023-03-01T04:22:02;-3.70;99.90
47022;DHT22;32779;52.264;6.154;2023-03-01T04:24:33;-3.70;99.90
47022;DHT22;32779;52.264;6.154;2023-03-01T04:26:58;-3.70;99.90
47022;DHT22;32779;52.264;6.154;2023-03-01T04:29:24;-3.60;99.90
47022;DHT22;32779;52.264;6.154;2023-03-01T04:31:50;-3.70;99.90
47022;DHT22;32779;52.264;6.154;2023-03-01T04:34:15;-3.70;99.90
47022;DHT22;32779;52.264;6.154;2023-03-01T04:36:41;-3.70;99.90
47022;DHT22;32779;52.264;6.154;2023-03-01T04:39:06;-3.70;99.90
47022;DHT22;32779;52.264;6.154;2023-03-01T04:41:38;-3.70;99.90
47022;DHT22;32779;52.264;6.154;2023-03-01T04:44:04;-3.70;99.90
47022;DHT22;32779;52.264;6.154;2023-03-01T04:46:30;-3.80;99.90
47022;DHT22;32779;52.264;6.154;2023-03-01T04:48:56;-3.80;99.90
47022;DHT22;32779;52.264;6.154;2023-03-01T04:51:21;-3.80;99.90
47022;DHT22;32779;52.264;6.154;2023-03-01T04:53:47;-3.80;99.90
47022;DHT22;32779;52.264;6.154;2023-03-01T04:56:13;-3.80;99.90
47022;DHT22;32779;52.264;6.154;2023-03-01T04:58:39;-3.90;99.90
47022;DHT22;32779;52.264;6.154;2023-03-01T05:01:13;-3.90;99.90
47022;DHT22;32779;52.264;6.154;2023-03-01T05:03:44;-3.90;99.90
47022;DHT22;32779;52.264;6.154;2023-03-01T05:06:10;-3.90;99.90
47022;DHT22;32779;52.264;6.154;2023-03-01T05:08:38;-3.80;99.90
47022;DHT22;32779;52.264;6.154;2023-03-01T05:11:04;-3.80;99.90
47022;DHT22;32779;52.264;6.154;2023-03-01T05:13:30;-3.80;99.90
47022;DHT22;32779;52.264;6.154;2023-03-01T05:16:01;-3.80;99.90
47022;DHT22;32779;52.264;6.154;2023-03-01T05:18:28;-3.80;99.90
47022;DHT22;32779;52.264;6.154;2023-03-01T05:21:04;-3.90;99.90
47022;DHT22;32779;52.264;6.154;2023-03-01T05:23:32;-3.90;99.90
47022;DHT22;32779;52.264;6.154;2023-03-01T05:25:58;-3.90;99.90
47022;DHT22;32779;52.264;6.154;2023-03-01T05:28:25;-3.90;99.90
47022;DHT22;32779;52.264;6.154;2023-03-01T05:30:51;-4.00;99.90
47022;DHT22;32779;52.264;6.154;2023-03-01T05:33:17;-3.90;99.90
47022;DHT22;32779;52.264;6.154;2023-03-01T05:35:44;-4.00;99.90
47022;DHT22;32779;52.264;6.154;2023-03-01T05:38:12;-3.90;99.90
47022;DHT22;32779;52.264;6.154;2023-03-01T05:40:46;-3.90;99.90
47022;DHT22;32779;52.264;6.154;2023-03-01T05:43:14;-3.90;99.90
47022;DHT22;32779;52.264;6.154;2023-03-01T05:45:41;-4.00;99.90
47022;DHT22;32779;52.264;6.154;2023-03-01T05:48:07;-4.00;99.90
47022;DHT22;32779;52.264;6.154;2023-03-01T05:50:38;-4.00;99.90
47022;DHT22;32779;52.264;6.154;2023-03-01T05:53:16;-3.90;99.90
47022;DHT22;32779;52.264;6.154;2023-03-01T05:55:42;-3.90;99.90
47022;DHT22;32779;52.264;6.154;2023-03-01T05:58:11;-4.00;99.90
47022;DHT22;32779;52.264;6.154;2023-03-01T06:00:40;-3.90;99.90
47022;DHT22;32779;52.264;6.154;2023-03-01T06:03:06;-3.80;99.90
47022;DHT22;32779;52.264;6.154;2023-03-01T06:05:32;-3.80;99.90
47022;DHT22;32779;52.264;6.154;2023-03-01T06:07:59;-3.80;99.90
47022;DHT22;32779;52.264;6.154;2023-03-01T06:10:25;-3.90;99.90
47022;DHT22;32779;52.264;6.154;2023-03-01T06:12:51;-3.90;99.90
47022;DHT22;32779;52.264;6.154;2023-03-01T06:15:17;-4.00;99.90
47022;DHT22;32779;52.264;6.154;2023-03-01T06:17:43;-4.00;99.90
47022;DHT22;32779;52.264;6.154;2023-03-01T06:20:14;-4.00;99.90
47022;DHT22;32779;52.264;6.154;2023-03-01T06:22:41;-4.00;99.90
47022;DHT22;32779;52.264;6.154;2023-03-01T06:25:08;-4.00;99.90
47022;DHT22;32779;52.264;6.154;2023-03-01T06:27:33;-4.00;99.90
47022;DHT22;32779;52.264;6.154;2023-03-01T06:29:59;-3.90;99.90
47022;DHT22;32779;52.264;6.154;2023-03-01T06:32:25;-3.90;99.90
47022;DHT22;32779;52.264;6.154;2023-03-01T06:34:50;-4.00;99.90
47022;DHT22;32779;52.264;6.154;2023-03-01T06:37:16;-4.00;99.90
47022;DHT22;32779;52.264;6.154;2023-03-01T06:39:42;-4.10;99.90
47022;DHT22;32779;52.264;6.154;2023-03-01T06:42:08;-4.10;99.90
47022;DHT22;32779;52.264;6.154;2023-03-01T06:44:36;-4.10;99.90
47022;DHT22;32779;52.264;6.154;2023-03-01T06:47:02;-4.10;99.90
47022;DHT22;32779;52.264;6.154;2023-03-01T06:49:28;-4.10;99.90
47022;DHT22;32779;52.264;6.154;2023-03-01T06:51:54;-4.10;99.90
47022;DHT22;32779;52.264;6.154;2023-03-01T06:54:20;-4.10;99.90
47022;DHT22;32779;52.264;6.154;2023-03-01T06:56:48;-4.10;99.90
47022;DHT22;32779;52.264;6.154;2023-03-01T06:59:14;-4.00;99.90
47022;DHT22;32779;52.264;6.154;2023-03-01T07:01:40;-3.90;99.90
47022;DHT22;32779;52.264;6.154;2023-03-01T07:04:06;-3.80;99.90
47022;DHT22;32779;52.264;6.154;2023-03-01T07:06:31;-3.80;99.90
47022;DHT22;32779;52.264;6.154;2023-03-01T07:08:57;-3.80;99.90
47022;DHT22;32779;52.264;6.154;2023-03-01T07:11:23;-3.70;99.90
47022;DHT22;32779;52.264;6.154;2023-03-01T07:13:49;-3.60;99.90
47022;DHT22;32779;52.264;6.154;2023-03-01T07:16:15;-3.40;99.90
47022;DHT22;32779;52.264;6.154;2023-03-01T07:18:41;-3.20;99.90
47022;DHT22;32779;52.264;6.154;2023-03-01T07:21:08;-3.00;99.90
47022;DHT22;32779;52.264;6.154;2023-03-01T07:23:34;-2.70;99.90
47022;DHT22;32779;52.264;6.154;2023-03-01T07:26:00;-2.50;99.90
47022;DHT22;32779;52.264;6.154;2023-03-01T07:28:26;-2.40;99.90
47022;DHT22;32779;52.264;6.154;2023-03-01T07:30:52;-2.20;99.90
47022;DHT22;32779;52.264;6.154;2023-03-01T07:33:18;-2.00;99.90
47022;DHT22;32779;52.264;6.154;2023-03-01T07:35:43;-1.90;99.90
47022;DHT22;32779;52.264;6.154;2023-03-01T07:38:09;-1.70;99.90
47022;DHT22;32779;52.264;6.154;2023-03-01T07:40:38;-1.60;99.90
47022;DHT22;32779;52.264;6.154;2023-03-01T07:43:03;-1.30;99.90
47022;DHT22;32779;52.264;6.154;2023-03-01T07:45:29;-1.20;99.90
47022;DHT22;32779;52.264;6.154;2023-03-01T07:47:55;-1.00;99.90
47022;DHT22;32779;52.264;6.154;2023-03-01T07:50:22;-0.90;99.90
47022;DHT22;32779;52.264;6.154;2023-03-01T07:52:49;-0.70;99.90
47022;DHT22;32779;52.264;6.154;2023-03-01T07:55:16;-0.60;99.90
47022;DHT22;32779;52.264;6.154;2023-03-01T07:57:42;-0.40;99.90
47022;DHT22;32779;52.264;6.154;2023-03-01T08:00:10;-0.30;99.90
47022;DHT22;32779;52.264;6.154;2023-03-01T08:02:36;-0.20;99.90
47022;DHT22;32779;52.264;6.154;2023-03-01T08:05:02;-0.10;99.90
47022;DHT22;32779;52.264;6.154;2023-03-01T08:07:27;0.00;99.90
47022;DHT22;32779;52.264;6.154;2023-03-01T08:09:53;0.10;99.90
47022;DHT22;32779;52.264;6.154;2023-03-01T08:12:19;0.20;99.90
47022;DHT22;32779;52.264;6.154;2023-03-01T08:14:44;0.30;99.90
47022;DHT22;32779;52.264;6.154;2023-03-01T08:17:10;0.40;99.90
47022;DHT22;32779;52.264;6.154;2023-03-01T08:19:36;0.50;99.90
47022;DHT22;32779;52.264;6.154;2023-03-01T08:22:02;0.60;99.90
47022;DHT22;32779;52.264;6.154;2023-03-01T08:24:28;0.70;99.90
47022;DHT22;32779;52.264;6.154;2023-03-01T08:26:54;0.70;99.90
47022;DHT22;32779;52.264;6.154;2023-03-01T08:29:20;0.80;99.90
47022;DHT22;32779;52.264;6.154;2023-03-01T08:31:46;0.90;99.90
47022;DHT22;32779;52.264;6.154;2023-03-01T08:34:15;1.00;99.90
47022;DHT22;32779;52.264;6.154;2023-03-01T08:36:43;1.10;99.90
47022;DHT22;32779;52.264;6.154;2023-03-01T08:39:11;1.20;99.90
47022;DHT22;32779;52.264;6.154;2023-03-01T08:41:37;1.20;99.90
47022;DHT22;32779;52.264;6.154;2023-03-01T08:44:05;1.40;99.90
47022;DHT22;32779;52.264;6.154;2023-03-01T08:46:34;1.50;99.90
47022;DHT22;32779;52.264;6.154;2023-03-01T08:49:04;1.60;99.90
47022;DHT22;32779;52.264;6.154;2023-03-01T08:51:29;1.70;99.90
47022;DHT22;32779;52.264;6.154;2023-03-01T08:53:57;1.70;99.90
47022;DHT22;32779;52.264;6.154;2023-03-01T08:56:23;1.80;99.90
47022;DHT22;32779;52.264;6.154;2023-03-01T08:58:49;1.90;99.90
47022;DHT22;32779;52.264;6.154;2023-03-01T09:01:17;1.90;99.90
47022;DHT22;32779;52.264;6.154;2023-03-01T09:03:44;1.90;99.90
47022;DHT22;32779;52.264;6.154;2023-03-01T09:06:11;2.00;99.90
47022;DHT22;32779;52.264;6.154;2023-03-01T09:08:43;2.10;99.90
47022;DHT22;32779;52.264;6.154;2023-03-01T09:11:14;2.10;99.90
47022;DHT22;32779;52.264;6.154;2023-03-01T09:13:41;2.20;99.90
47022;DHT22;32779;52.264;6.154;2023-03-01T09:16:08;2.20;99.90
47022;DHT22;32779;52.264;6.154;2023-03-01T09:18:34;2.30;99.90
47022;DHT22;32779;52.264;6.154;2023-03-01T09:21:05;2.30;99.90
47022;DHT22;32779;52.264;6.154;2023-03-01T09:23:43;2.40;99.90
47022;DHT22;32779;52.264;6.154;2023-03-01T09:26:15;2.50;99.90
47022;DHT22;32779;52.264;6.154;2023-03-01T09:28:42;2.50;99.90
47022;DHT22;32779;52.264;6.154;2023-03-01T09:31:08;2.50;99.90
47022;DHT22;32779;52.264;6.154;2023-03-01T09:33:34;2.60;99.90
47022;DHT22;32779;52.264;6.154;2023-03-01T09:36:04;2.60;99.90
47022;DHT22;32779;52.264;6.154;2023-03-01T09:38:30;2.70;99.90
47022;DHT22;32779;52.264;6.154;2023-03-01T09:40:56;2.70;99.90
47022;DHT22;32779;52.264;6.154;2023-03-01T09:43:42;2.80;99.90
47022;DHT22;32779;52.264;6.154;2023-03-01T09:46:10;2.90;99.90
47022;DHT22;32779;52.264;6.154;2023-03-01T09:48:43;2.90;99.90
47022;DHT22;32779;52.264;6.154;2023-03-01T09:51:17;3.00;99.90
47022;DHT22;32779;52.264;6.154;2023-03-01T09:53:44;3.00;99.90
47022;DHT22;32779;52.264;6.154;2023-03-01T09:56:39;3.10;99.90
47022;DHT22;32779;52.264;6.154;2023-03-01T09:59:20;3.20;99.90
47022;DHT22;32779;52.264;6.154;2023-03-01T10:02:02;3.30;99.90
47022;DHT22;32779;52.264;6.154;2023-03-01T10:04:51;3.30;99.90
47022;DHT22;32779;52.264;6.154;2023-03-01T10:10:57;3.40;99.90
47022;DHT22;32779;52.264;6.154;2023-03-01T10:13:29;3.50;99.90
47022;DHT22;32779;52.264;6.154;2023-03-01T10:16:12;3.60;99.90
47022;DHT22;32779;52.264;6.154;2023-03-01T10:18:40;3.60;99.90
47022;DHT22;32779;52.264;6.154;2023-03-01T10:21:15;3.70;99.90
47022;DHT22;32779;52.264;6.154;2023-03-01T10:23:42;3.80;99.50
47022;DHT22;32779;52.264;6.154;2023-03-01T10:29:03;3.90;99.00
47022;DHT22;32779;52.264;6.154;2023-03-01T10:31:41;4.00;99.10
47022;DHT22;32779;52.264;6.154;2023-03-01T10:34:21;4.10;98.40
47022;DHT22;32779;52.264;6.154;2023-03-01T10:36:50;4.10;98.00
47022;DHT22;32779;52.264;6.154;2023-03-01T10:39:21;4.10;97.90
47022;DHT22;32779;52.264;6.154;2023-03-01T10:44:38;4.20;98.70
47022;DHT22;32779;52.264;6.154;2023-03-01T10:47:07;4.20;97.70
47022;DHT22;32779;52.264;6.154;2023-03-01T10:49:37;4.30;97.90
47022;DHT22;32779;52.264;6.154;2023-03-01T10:52:18;4.30;97.80
47022;DHT22;32779;52.264;6.154;2023-03-01T10:54:52;4.30;97.20
47022;DHT22;32779;52.264;6.154;2023-03-01T10:57:32;4.30;97.50
47022;DHT22;32779;52.264;6.154;2023-03-01T11:00:20;4.30;96.90
47022;DHT22;32779;52.264;6.154;2023-03-01T11:03:02;4.40;97.10
47022;DHT22;32779;52.264;6.154;2023-03-01T11:05:28;4.50;95.50
47022;DHT22;32779;52.264;6.154;2023-03-01T11:07:59;4.50;95.90
47022;DHT22;32779;52.264;6.154;2023-03-01T11:10:33;4.50;95.70
47022;DHT22;32779;52.264;6.154;2023-03-01T11:13:19;4.60;96.00
47022;DHT22;32779;52.264;6.154;2023-03-01T11:16:02;4.70;95.60
47022;DHT22;32779;52.264;6.154;2023-03-01T11:18:30;4.70;95.10
47022;DHT22;32779;52.264;6.154;2023-03-01T11:20:57;4.70;95.40
47022;DHT22;32779;52.264;6.154;2023-03-01T11:23:25;4.70;94.70
47022;DHT22;32779;52.264;6.154;2023-03-01T11:26:00;4.70;95.20
47022;DHT22;32779;52.264;6.154;2023-03-01T11:28:28;4.80;95.50
47022;DHT22;32779;52.264;6.154;2023-03-01T11:33:49;4.90;94.50
47022;DHT22;32779;52.264;6.154;2023-03-01T11:36:41;5.00;94.30
47022;DHT22;32779;52.264;6.154;2023-03-01T11:42:43;5.10;93.90
47022;DHT22;32779;52.264;6.154;2023-03-01T11:45:12;5.10;94.10
47022;DHT22;32779;52.264;6.154;2023-03-01T11:50:29;5.20;94.10
47022;DHT22;32779;52.264;6.154;2023-03-01T11:53:01;5.10;93.90
47022;DHT22;32779;52.264;6.154;2023-03-01T11:55:43;5.20;94.60
47022;DHT22;32779;52.264;6.154;2023-03-01T11:58:17;5.20;94.40
47022;DHT22;32779;52.264;6.154;2023-03-01T12:03:25;5.30;94.20
47022;DHT22;32779;52.264;6.154;2023-03-01T12:05:59;5.40;93.30
47022;DHT22;32779;52.264;6.154;2023-03-01T12:17:30;5.40;93.40
47022;DHT22;32779;52.264;6.154;2023-03-01T12:25:37;5.40;93.20
47022;DHT22;32779;52.264;6.154;2023-03-01T12:30:56;5.40;93.20
47022;DHT22;32779;52.264;6.154;2023-03-01T12:49:39;5.70;92.30
47022;DHT22;32779;52.264;6.154;2023-03-01T12:52:35;5.70;92.20
47022;DHT22;32779;52.264;6.154;2023-03-01T12:55:50;5.70;92.10
47022;DHT22;32779;52.264;6.154;2023-03-01T13:01:01;5.80;92.50
47022;DHT22;32779;52.264;6.154;2023-03-01T13:11:42;6.00;92.20
47022;DHT22;32779;52.264;6.154;2023-03-01T13:16:46;6.00;92.00
47022;DHT22;32779;52.264;6.154;2023-03-01T13:19:25;6.10;91.50
47022;DHT22;32779;52.264;6.154;2023-03-01T13:21:52;6.10;91.50
47022;DHT22;32779;52.264;6.154;2023-03-01T13:24:40;6.10;91.20
47022;DHT22;32779;52.264;6.154;2023-03-01T13:29:51;6.30;90.80
47022;DHT22;32779;52.264;6.154;2023-03-01T13:32:26;6.40;91.30
47022;DHT22;32779;52.264;6.154;2023-03-01T13:35:07;6.40;90.00
47022;DHT22;32779;52.264;6.154;2023-03-01T13:37:48;6.30;90.10
47022;DHT22;32779;52.264;6.154;2023-03-01T13:42:51;6.30;90.60
47022;DHT22;32779;52.264;6.154;2023-03-01T13:47:52;6.40;90.70
47022;DHT22;32779;52.264;6.154;2023-03-01T13:50:23;6.40;91.00
47022;DHT22;32779;52.264;6.154;2023-03-01T13:53:04;6.40;91.60
47022;DHT22;32779;52.264;6.154;2023-03-01T13:55:45;6.40;91.30
47022;DHT22;32779;52.264;6.154;2023-03-01T13:58:22;6.60;91.10
47022;DHT22;32779;52.264;6.154;2023-03-01T14:00:55;6.60;90.30
47022;DHT22;32779;52.264;6.154;2023-03-01T14:03:21;6.60;90.80
47022;DHT22;32779;52.264;6.154;2023-03-01T14:06:05;6.70;91.40
47022;DHT22;32779;52.264;6.154;2023-03-01T14:08:37;6.60;91.40
47022;DHT22;32779;52.264;6.154;2023-03-01T14:16:46;6.70;92.70
47022;DHT22;32779;52.264;6.154;2023-03-01T14:19:24;6.70;92.50
47022;DHT22;32779;52.264;6.154;2023-03-01T14:24:31;6.60;92.80
47022;DHT22;32779;52.264;6.154;2023-03-01T14:27:01;6.60;93.00
47022;DHT22;32779;52.264;6.154;2023-03-01T14:32:09;6.60;93.30
47022;DHT22;32779;52.264;6.154;2023-03-01T14:34:35;6.70;93.20
47022;DHT22;32779;52.264;6.154;2023-03-01T14:37:21;6.60;93.30
47022;DHT22;32779;52.264;6.154;2023-03-01T14:39:48;6.60;93.90
47022;DHT22;32779;52.264;6.154;2023-03-01T14:42:15;6.60;93.50
47022;DHT22;32779;52.264;6.154;2023-03-01T14:44:42;6.60;93.50
47022;DHT22;32779;52.264;6.154;2023-03-01T14:47:12;6.60;93.40
47022;DHT22;32779;52.264;6.154;2023-03-01T14:49:39;6.60;93.40
47022;DHT22;32779;52.264;6.154;2023-03-01T14:52:07;6.50;93.60
47022;DHT22;32779;52.264;6.154;2023-03-01T14:54:46;6.60;93.50
47022;DHT22;32779;52.264;6.154;2023-03-01T14:57:22;6.60;93.70
47022;DHT22;32779;52.264;6.154;2023-03-01T14:59:49;6.60;93.20
47022;DHT22;32779;52.264;6.154;2023-03-01T15:02:18;6.60;93.00
47022;DHT22;32779;52.264;6.154;2023-03-01T15:05:03;6.60;93.20
47022;DHT22;32779;52.264;6.154;2023-03-01T15:07:34;6.60;93.40
47022;DHT22;32779;52.264;6.154;2023-03-01T15:10:02;6.60;93.10
47022;DHT22;32779;52.264;6.154;2023-03-01T15:14:57;6.60;92.70
47022;DHT22;32779;52.264;6.154;2023-03-01T15:17:37;6.60;92.90
47022;DHT22;32779;52.264;6.154;2023-03-01T15:20:16;6.60;92.80
47022;DHT22;32779;52.264;6.154;2023-03-01T15:22:45;6.50;92.60
47022;DHT22;32779;52.264;6.154;2023-03-01T15:25:19;6.50;92.80
47022;DHT22;32779;52.264;6.154;2023-03-01T15:27:49;6.50;92.80
47022;DHT22;32779;52.264;6.154;2023-03-01T15:30:35;6.50;93.30
47022;DHT22;32779;52.264;6.154;2023-03-01T15:35:54;6.60;92.30
47022;DHT22;32779;52.264;6.154;2023-03-01T15:38:49;6.50;92.50
47022;DHT22;32779;52.264;6.154;2023-03-01T15:41:29;6.50;92.70
47022;DHT22;32779;52.264;6.154;2023-03-01T15:44:00;6.50;92.90
47022;DHT22;32779;52.264;6.154;2023-03-01T15:46:29;6.50;92.80
47022;DHT22;32779;52.264;6.154;2023-03-01T15:49:01;6.50;92.60
47022;DHT22;32779;52.264;6.154;2023-03-01T15:51:36;6.40;92.70
47022;DHT22;32779;52.264;6.154;2023-03-01T15:54:09;6.50;92.70
47022;DHT22;32779;52.264;6.154;2023-03-01T15:56:39;6.40;93.00
47022;DHT22;32779;52.264;6.154;2023-03-01T15:59:04;6.40;92.80
47022;DHT22;32779;52.264;6.154;2023-03-01T16:01:32;6.40;92.50
47022;DHT22;32779;52.264;6.154;2023-03-01T16:03:59;6.40;92.50
47022;DHT22;32779;52.264;6.154;2023-03-01T16:06:25;6.40;92.50
47022;DHT22;32779;52.264;6.154;2023-03-01T16:08:50;6.30;92.40
47022;DHT22;32779;52.264;6.154;2023-03-01T16:11:18;6.30;92.30
47022;DHT22;32779;52.264;6.154;2023-03-01T16:13:45;6.30;92.30
47022;DHT22;32779;52.264;6.154;2023-03-01T16:16:11;6.30;92.10
47022;DHT22;32779;52.264;6.154;2023-03-01T16:18:40;6.30;92.30
47022;DHT22;32779;52.264;6.154;2023-03-01T16:21:06;6.20;92.20
47022;DHT22;32779;52.264;6.154;2023-03-01T16:23:31;6.20;92.30
47022;DHT22;32779;52.264;6.154;2023-03-01T16:26:00;6.20;92.40
47022;DHT22;32779;52.264;6.154;2023-03-01T16:28:26;6.20;92.60
47022;DHT22;32779;52.264;6.154;2023-03-01T16:30:52;6.20;92.60
47022;DHT22;32779;52.264;6.154;2023-03-01T16:33:18;6.20;92.90
47022;DHT22;32779;52.264;6.154;2023-03-01T16:35:43;6.10;92.90
47022;DHT22;32779;52.264;6.154;2023-03-01T16:38:10;6.10;93.00
47022;DHT22;32779;52.264;6.154;2023-03-01T16:40:35;6.00;92.90
47022;DHT22;32779;52.264;6.154;2023-03-01T16:43:01;6.00;93.20
47022;DHT22;32779;52.264;6.154;2023-03-01T16:45:29;5.90;93.40
47022;DHT22;32779;52.264;6.154;2023-03-01T16:47:57;5.90;93.70
47022;DHT22;32779;52.264;6.154;2023-03-01T16:50:23;5.80;93.60
47022;DHT22;32779;52.264;6.154;2023-03-01T16:52:49;5.80;93.60
47022;DHT22;32779;52.264;6.154;2023-03-01T16:55:15;5.80;93.50
47022;DHT22;32779;52.264;6.154;2023-03-01T16:57:40;5.80;93.50
47022;DHT22;32779;52.264;6.154;2023-03-01T17:00:07;5.70;93.30
47022;DHT22;32779;52.264;6.154;2023-03-01T17:02:37;5.70;93.40
47022;DHT22;32779;52.264;6.154;2023-03-01T17:05:03;5.70;93.70
47022;DHT22;32779;52.264;6.154;2023-03-01T17:07:29;5.60;93.50
47022;DHT22;32779;52.264;6.154;2023-03-01T17:09:59;5.60;93.60
47022;DHT22;32779;52.264;6.154;2023-03-01T17:12:25;5.50;93.50
47022;DHT22;32779;52.264;6.154;2023-03-01T17:14:51;5.50;93.60
47022;DHT22;32779;52.264;6.154;2023-03-01T17:17:16;5.50;93.80
47022;DHT22;32779;52.264;6.154;2023-03-01T17:19:42;5.40;93.90
47022;DHT22;32779;52.264;6.154;2023-03-01T17:22:10;5.40;94.00
47022;DHT22;32779;52.264;6.154;2023-03-01T17:24:37;5.30;94.10
47022;DHT22;32779;52.264;6.154;2023-03-01T17:27:04;5.30;94.10
47022;DHT22;32779;52.264;6.154;2023-03-01T17:29:30;5.20;94.40
47022;DHT22;32779;52.264;6.154;2023-03-01T17:31:56;5.20;94.30
47022;DHT22;32779;52.264;6.154;2023-03-01T17:34:22;5.20;94.40